Time;durP1;ratioP1;P1;durP2;ratioP2;P2;SDS_P1;SDS_P2;PMS_P1;PMS_P2;Temp;Humidity;BMP_temperature;BMP_pressure;BME280_temperature;BME280_humidity;BME280_pressure;Samples;Min_cycle;Max_cycle;Signal;HPM_P1;HPM_P2
2021/01/03 00:02:07;;;;;;;12.20;9.20;;;12.60;70.50;;;;;;5114623;28;20431;-59
2021/01/03 00:04:34;;;;;;;12.43;9.30;;;12.60;70.40;;;;;;5114416;28;20436;-59
2021/01/03 00:07:01;;;;;;;15.10;10.23;;;12.60;70.20;;;;;;5114266;28;20436;-58
2021/01/03 00:09:28;;;;;;;13.37;8.87;;;12.60;70.20;;;;;;5114162;28;20503;-59
2021/01/03 00:11:55;;;;;;;17.20;10.40;;;12.70;70.10;;;;;;5114402;28;20440;-56
2021/01/03 00:14:22;;;;;;;13.03;9.70;;;12.60;70.20;;;;;;5114170;28;20461;-58
2021/01/03 00:16:53;;;;;;;12.00;8.87;;;12.60;70.20;;;;;;5114252;28;20511;-59
2021/01/03 00:19:21;;;;;;;13.80;9.30;;;12.60;70.30;;;;;;5113952;28;20428;-59
2021/01/03 00:21:48;;;;;;;16.20;9.33;;;12.70;70.90;;;;;;5114304;28;20432;-58
2021/01/03 00:24:15;;;;;;;12.00;9.03;;;12.60;70.20;;;;;;5114359;28;20500;-58
2021/01/03 00:26:41;;;;;;;16.07;8.90;;;12.70;70.40;;;;;;5114209;28;20553;-58
2021/01/03 00:29:09;;;;;;;14.03;9.87;;;12.70;70.20;;;;;;5113707;28;20466;-58
2021/01/03 00:31:37;;;;;;;14.73;9.90;;;12.80;69.90;;;;;;5114358;28;20528;-57
2021/01/03 00:34:05;;;;;;;14.80;9.30;;;12.70;70.00;;;;;;5114348;28;20482;-58
2021/01/03 00:36:32;;;;;;;13.60;9.07;;;12.70;70.00;;;;;;5114707;28;20520;-58
2021/01/03 00:38:59;;;;;;;12.40;8.73;;;12.70;70.00;;;;;;5113571;28;20515;-59
2021/01/03 00:41:26;;;;;;;14.80;9.50;;;12.70;70.00;;;;;;5114045;28;20432;-59
2021/01/03 00:43:53;;;;;;;11.90;8.80;;;12.60;70.20;;;;;;5114024;28;20483;-57
2021/01/03 00:46:20;;;;;;;12.23;8.80;;;12.70;70.30;;;;;;5130966;28;20521;-58
2021/01/03 00:48:47;;;;;;;13.30;9.00;;;12.60;70.20;;;;;;5133883;28;20525;-59
2021/01/03 00:51:14;;;;;;;13.67;9.50;;;12.70;70.10;;;;;;5137761;27;20481;-58
2021/01/03 00:53:41;;;;;;;14.43;9.33;;;12.70;70.20;;;;;;5138201;27;20478;-56
2021/01/03 00:56:07;;;;;;;13.87;9.80;;;12.60;70.20;;;;;;5138179;27;20521;-58
2021/01/03 00:58:34;;;;;;;13.67;9.50;;;12.60;70.30;;;;;;5138326;27;20521;-58
2021/01/03 01:01:01;;;;;;;12.20;9.27;;;12.60;70.50;;;;;;5137833;27;20527;-57
2021/01/03 01:03:29;;;;;;;14.97;10.13;;;12.60;70.60;;;;;;5126204;27;20538;-59
2021/01/03 01:05:56;;;;;;;12.20;9.30;;;12.60;70.50;;;;;;5117860;28;20475;-58
2021/01/03 01:08:23;;;;;;;13.93;9.07;;;12.70;70.10;;;;;;5117997;28;20475;-59
2021/01/03 01:10:50;;;;;;;13.00;9.50;;;12.60;70.20;;;;;;5117026;28;20538;-58
2021/01/03 01:13:16;;;;;;;12.47;9.50;;;12.70;70.20;;;;;;5117537;27;20483;-59
2021/01/03 01:15:43;;;;;;;15.97;9.83;;;12.70;70.20;;;;;;5117609;28;20503;-59
2021/01/03 01:18:11;;;;;;;13.90;9.03;;;12.70;70.00;;;;;;5117540;28;20443;-58
2021/01/03 01:20:38;;;;;;;16.30;10.60;;;12.70;70.00;;;;;;5117157;27;20530;-58
2021/01/03 01:23:05;;;;;;;14.37;9.87;;;12.70;70.20;;;;;;5117214;28;20436;-59
2021/01/03 01:25:33;;;;;;;14.93;9.47;;;12.80;69.90;;;;;;5117398;28;20532;-58
2021/01/03 01:28:00;;;;;;;12.37;8.70;;;12.70;70.00;;;;;;5117535;28;20461;-58
2021/01/03 01:30:28;;;;;;;14.67;9.53;;;12.70;70.00;;;;;;5116995;28;20531;-59
2021/01/03 01:32:55;;;;;;;13.53;9.50;;;12.70;70.10;;;;;;5117233;28;20460;-59
2021/01/03 01:35:23;;;;;;;13.50;9.13;;;12.60;70.00;;;;;;5117044;28;20507;-59
2021/01/03 01:37:51;;;;;;;13.27;8.70;;;12.70;70.00;;;;;;5117359;27;20444;-59
2021/01/03 01:40:19;;;;;;;13.57;9.60;;;12.70;69.90;;;;;;5116811;28;20554;-59
2021/01/03 01:42:46;;;;;;;12.03;8.60;;;12.80;70.00;;;;;;5117224;28;20519;-59
2021/01/03 01:45:14;;;;;;;12.30;9.30;;;12.70;70.00;;;;;;5117180;28;20515;-59
2021/01/03 01:47:41;;;;;;;11.93;8.47;;;12.70;70.20;;;;;;5117546;27;20450;-59
2021/01/03 01:50:10;;;;;;;13.60;9.43;;;12.60;70.30;;;;;;5116297;28;20432;-57
2021/01/03 01:52:40;;;;;;;15.83;10.50;;;12.60;70.40;;;;;;5116936;28;20432;-58
2021/01/03 01:55:11;;;;;;;14.83;9.70;;;12.70;70.20;;;;;;5116866;28;20461;-59
2021/01/03 01:57:40;;;;;;;15.60;10.53;;;12.60;70.10;;;;;;5116892;28;20486;-59
2021/01/03 02:00:09;;;;;;;13.90;9.33;;;12.60;70.30;;;;;;5116119;28;20473;-59
2021/01/03 02:02:37;;;;;;;14.60;10.33;;;12.60;70.20;;;;;;5116001;28;20531;-54
2021/01/03 02:05:10;;;;;;;13.50;9.47;;;12.60;70.30;;;;;;5117159;28;20467;-59
2021/01/03 02:07:41;;;;;;;12.23;9.07;;;12.70;70.10;;;;;;5116624;28;20468;-59
2021/01/03 02:10:23;;;;;;;14.00;9.13;;;12.70;70.00;;;;;;5115841;28;20438;-59
2021/01/03 02:12:52;;;;;;;13.73;8.80;;;12.70;69.70;;;;;;5116412;28;20463;-59
2021/01/03 02:15:20;;;;;;;14.93;9.63;;;12.70;70.00;;;;;;5116479;28;20474;-59
2021/01/03 02:17:47;;;;;;;13.37;10.07;;;12.60;70.10;;;;;;5116287;28;20502;-58
2021/01/03 02:20:15;;;;;;;12.17;8.60;;;12.60;70.10;;;;;;5116105;28;20444;-58
2021/01/03 02:22:42;;;;;;;12.90;9.03;;;12.60;70.10;;;;;;5124876;27;20534;-59
2021/01/03 02:25:12;;;;;;;12.20;9.10;;;12.70;70.10;;;;;;5136856;27;20456;-57
2021/01/03 02:27:41;;;;;;;15.37;10.17;;;12.60;70.10;;;;;;5136513;27;20431;-58
2021/01/03 02:30:09;;;;;;;12.80;8.80;;;12.60;70.10;;;;;;5136673;27;20534;-59
2021/01/03 02:32:36;;;;;;;14.23;9.20;;;12.60;70.00;;;;;;5119369;27;20524;-59
2021/01/03 02:35:05;;;;;;;12.75;9.60;;;12.70;69.90;;;;;;5116086;28;20522;-55
2021/01/03 02:37:35;;;;;;;12.60;9.20;;;12.70;70.00;;;;;;5116074;28;20492;-58
2021/01/03 02:40:05;;;;;;;11.60;8.57;;;12.70;70.00;;;;;;5115515;27;20485;-58
2021/01/03 02:42:34;;;;;;;13.93;9.20;;;12.60;70.10;;;;;;5115831;28;20468;-58
2021/01/03 02:45:02;;;;;;;13.77;9.43;;;12.50;70.20;;;;;;5116120;28;20486;-59
2021/01/03 02:47:30;;;;;;;12.40;8.70;;;12.60;70.20;;;;;;5115809;28;20460;-58
2021/01/03 02:49:57;;;;;;;11.70;8.80;;;12.50;70.40;;;;;;5115407;28;20435;-59
2021/01/03 02:52:27;;;;;;;13.10;8.70;;;12.60;70.30;;;;;;5115791;28;20459;-57
2021/01/03 02:54:54;;;;;;;13.43;9.60;;;12.60;70.30;;;;;;5115715;28;20463;-58
2021/01/03 02:57:21;;;;;;;12.87;9.00;;;12.60;70.40;;;;;;5116399;27;20472;-58
2021/01/03 02:59:48;;;;;;;14.93;9.90;;;12.60;70.20;;;;;;5135421;27;20477;-57
2021/01/03 03:02:15;;;;;;;13.50;9.47;;;12.60;70.30;;;;;;5135942;27;20455;-58
2021/01/03 03:04:42;;;;;;;12.00;8.70;;;12.60;70.20;;;;;;5136279;27;20518;-58
2021/01/03 03:07:09;;;;;;;12.47;9.07;;;12.60;70.30;;;;;;5135830;27;20435;-58
2021/01/03 03:09:35;;;;;;;14.07;9.07;;;12.50;70.40;;;;;;5135544;27;20431;-56
2021/01/03 03:12:03;;;;;;;14.50;9.90;;;12.50;70.30;;;;;;5135819;27;20435;-59
2021/01/03 03:14:30;;;;;;;14.60;9.57;;;12.50;70.50;;;;;;5135116;27;20435;-58
2021/01/03 03:16:58;;;;;;;13.07;9.07;;;12.50;70.40;;;;;;5117312;27;20507;-59
2021/01/03 03:19:26;;;;;;;10.27;8.20;;;12.50;70.50;;;;;;5115093;28;20436;-58
2021/01/03 03:21:53;;;;;;;12.17;8.83;;;12.60;70.40;;;;;;5115137;28;20424;-58
2021/01/03 03:24:20;;;;;;;14.40;9.07;;;12.60;70.30;;;;;;5115510;27;20535;-59
2021/01/03 03:26:50;;;;;;;12.33;9.10;;;12.50;70.30;;;;;;5115087;28;20467;-59
2021/01/03 03:29:20;;;;;;;13.17;9.40;;;12.50;70.40;;;;;;5114270;28;20496;-58
2021/01/03 03:31:47;;;;;;;13.70;10.00;;;12.60;70.30;;;;;;5115101;28;20444;-57
2021/01/03 03:34:15;;;;;;;13.37;8.90;;;12.60;70.40;;;;;;5129967;27;20446;-58
2021/01/03 03:36:42;;;;;;;13.80;9.17;;;12.60;70.30;;;;;;5135685;27;20565;-59
2021/01/03 03:39:08;;;;;;;13.07;9.33;;;12.50;70.30;;;;;;5134869;27;20423;-58
2021/01/03 03:41:35;;;;;;;13.43;9.00;;;12.60;70.20;;;;;;5135065;27;20463;-56
2021/01/03 03:44:04;;;;;;;13.40;9.70;;;12.50;70.40;;;;;;5135177;27;20530;-56
2021/01/03 03:46:30;;;;;;;11.90;8.83;;;12.50;70.30;;;;;;5135443;27;20459;-59
2021/01/03 03:48:57;;;;;;;15.00;9.93;;;12.50;70.60;;;;;;5134922;27;20458;-58
2021/01/03 03:51:25;;;;;;;13.57;9.53;;;12.50;70.30;;;;;;5135210;27;20438;-59
2021/01/03 03:53:51;;;;;;;14.83;9.33;;;12.60;70.30;;;;;;5135252;27;20521;-58
2021/01/03 03:56:18;;;;;;;14.70;9.53;;;12.60;70.30;;;;;;5134914;27;20478;-58
2021/01/03 03:58:45;;;;;;;12.57;9.17;;;12.60;70.30;;;;;;5134765;27;20495;-58
2021/01/03 04:01:12;;;;;;;13.20;9.87;;;12.60;70.10;;;;;;5134724;27;20472;-59
2021/01/03 04:03:39;;;;;;;13.07;9.50;;;12.50;70.20;;;;;;5135263;27;20439;-59
2021/01/03 04:06:06;;;;;;;14.00;9.80;;;12.50;70.40;;;;;;5135136;27;20427;-57
2021/01/03 04:08:36;;;;;;;12.57;9.30;;;12.60;70.20;;;;;;5129511;28;20452;-58
2021/01/03 04:11:03;;;;;;;13.23;8.87;;;12.60;70.20;;;;;;5114330;28;20477;-57
2021/01/03 04:13:30;;;;;;;12.17;9.37;;;12.50;70.10;;;;;;5114823;28;20432;-58
2021/01/03 04:15:57;;;;;;;13.30;9.37;;;12.60;70.10;;;;;;5114676;28;20550;-58
2021/01/03 04:18:23;;;;;;;14.97;9.97;;;12.50;70.20;;;;;;5114655;28;20460;-57
2021/01/03 04:20:50;;;;;;;12.67;8.87;;;12.50;70.20;;;;;;5113931;28;20502;-59
2021/01/03 04:23:17;;;;;;;11.50;8.60;;;12.60;70.20;;;;;;5114349;28;20531;-59
2021/01/03 04:25:59;;;;;;;11.33;8.43;;;12.60;70.10;;;;;;5117580;27;20435;-57
2021/01/03 04:28:26;;;;;;;12.37;8.50;;;12.60;70.10;;;;;;5118607;28;20428;-58
2021/01/03 04:30:53;;;;;;;12.03;8.43;;;12.50;70.20;;;;;;5118060;28;20509;-58
2021/01/03 04:33:20;;;;;;;13.13;9.10;;;12.50;70.20;;;;;;5118455;28;20502;-59
2021/01/03 04:35:48;;;;;;;10.93;8.10;;;12.50;70.20;;;;;;5118359;27;20497;-57
2021/01/03 04:38:14;;;;;;;12.57;8.87;;;12.50;70.40;;;;;;5118587;28;20467;-57
2021/01/03 04:40:41;;;;;;;12.17;8.33;;;12.60;70.20;;;;;;5117909;28;20539;-58
2021/01/03 04:43:12;;;;;;;12.73;8.73;;;12.50;70.20;;;;;;5118369;28;20516;-59
2021/01/03 04:45:40;;;;;;;12.60;8.30;;;12.50;70.30;;;;;;5118613;27;20488;-58
2021/01/03 04:48:08;;;;;;;12.50;9.40;;;12.50;70.20;;;;;;5118266;28;20435;-58
2021/01/03 04:51:16;;;;;;;13.23;9.00;;;12.60;70.20;;;;;;5117379;28;20435;-58
2021/01/03 04:53:44;;;;;;;13.10;9.13;;;12.50;70.10;;;;;;5055700;28;20462;-59
2021/01/03 04:56:23;;;;;;;12.60;8.63;;;12.50;70.30;;;;;;5108592;28;20535;-58
2021/01/03 04:59:01;;;;;;;10.37;7.93;;;12.50;70.10;;;;;;5117193;28;20432;-59
2021/01/03 05:01:53;;;;;;;12.90;8.43;;;12.50;70.10;;;;;;5121556;27;20478;-59
2021/01/03 05:04:41;;;;;;;11.57;8.30;;;12.50;70.20;;;;;;5138533;27;20521;-59
2021/01/03 05:07:09;;;;;;;13.80;9.30;;;12.50;70.10;;;;;;5138265;27;20422;-59
2021/01/03 05:09:36;;;;;;;12.53;8.87;;;12.50;70.10;;;;;;5137859;27;20470;-59
2021/01/03 05:12:07;;;;;;;12.90;8.97;;;12.50;70.10;;;;;;5119700;27;20474;-59
2021/01/03 05:14:36;;;;;;;12.63;8.77;;;12.40;70.20;;;;;;5117828;28;20491;-59
2021/01/03 05:17:04;;;;;;;9.70;7.60;;;12.40;70.40;;;;;;5117540;28;20482;-58
2021/01/03 05:19:30;;;;;;;11.97;8.63;;;12.40;70.30;;;;;;5117461;28;20475;-59
2021/01/03 05:21:57;;;;;;;13.70;9.27;;;12.40;70.30;;;;;;5117345;28;20427;-57
2021/01/03 05:24:25;;;;;;;11.43;8.10;;;12.50;70.10;;;;;;5117551;28;20459;-57
2021/01/03 05:26:51;;;;;;;12.17;8.87;;;12.50;70.10;;;;;;5117467;28;20511;-58
2021/01/03 05:29:23;;;;;;;11.63;8.33;;;12.50;70.10;;;;;;5131597;27;20482;-59
2021/01/03 05:31:56;;;;;;;11.70;8.53;;;12.50;70.10;;;;;;5137829;27;20463;-57
2021/01/03 05:34:30;;;;;;;12.87;9.30;;;12.40;70.20;;;;;;5137659;27;20496;-58
2021/01/03 05:37:03;;;;;;;12.30;9.03;;;12.40;70.40;;;;;;5132148;27;20475;-58
2021/01/03 05:39:30;;;;;;;11.60;8.63;;;12.40;70.30;;;;;;5116763;28;20436;-58
2021/01/03 05:42:02;;;;;;;14.17;8.43;;;12.50;70.10;;;;;;5117144;28;20454;-59
2021/01/03 05:44:30;;;;;;;12.80;9.23;;;12.40;70.20;;;;;;5117092;28;20535;-59
2021/01/03 05:47:12;;;;;;;12.40;8.80;;;12.50;70.10;;;;;;5117088;27;20489;-58
2021/01/03 05:49:39;;;;;;;11.67;8.97;;;12.50;69.90;;;;;;5116841;28;20467;-58
2021/01/03 05:52:13;;;;;;;12.33;8.50;;;12.50;69.90;;;;;;5117120;28;20497;-58
2021/01/03 05:54:39;;;;;;;12.60;8.60;;;12.40;70.00;;;;;;5117806;27;20515;-58
2021/01/03 05:57:07;;;;;;;10.17;8.10;;;12.40;70.20;;;;;;5116480;28;20549;-59
2021/01/03 05:59:35;;;;;;;12.20;8.80;;;12.40;70.30;;;;;;5116217;28;20475;-58
2021/01/03 06:02:09;;;;;;;9.70;7.60;;;12.40;70.40;;;;;;5116789;28;20456;-57
2021/01/03 06:04:36;;;;;;;12.20;8.23;;;12.40;70.20;;;;;;5116743;28;20472;-58
2021/01/03 06:07:19;;;;;;;11.10;8.10;;;12.40;70.10;;;;;;5116661;28;20432;-58
2021/01/03 06:09:46;;;;;;;12.23;8.60;;;12.40;70.10;;;;;;5114332;28;20443;-57
2021/01/03 06:12:18;;;;;;;11.97;8.53;;;12.30;70.20;;;;;;5116582;27;20432;-59
2021/01/03 06:14:45;;;;;;;13.03;9.17;;;12.40;70.30;;;;;;5116600;28;20519;-57
2021/01/03 06:17:32;;;;;;;13.77;9.03;;;12.40;70.00;;;;;;5116566;28;20504;-57
2021/01/03 06:20:06;;;;;;;16.10;8.87;;;12.40;70.10;;;;;;5115668;28;20515;-58
2021/01/03 06:22:38;;;;;;;12.20;8.33;;;12.40;70.00;;;;;;5132650;27;20488;-58
2021/01/03 06:25:24;;;;;;;10.93;7.97;;;12.40;70.00;;;;;;5137024;27;20431;-59
2021/01/03 06:27:51;;;;;;;12.20;8.20;;;12.40;70.20;;;;;;5137048;27;20503;-57
2021/01/03 06:30:19;;;;;;;12.63;8.17;;;12.40;70.30;;;;;;5129176;27;20497;-59
2021/01/03 06:33:15;;;;;;;10.10;8.20;;;12.30;70.90;;;;;;5115964;28;20499;-59
2021/01/03 06:35:42;;;;;;;12.83;8.83;;;12.30;70.20;;;;;;5116003;28;20435;-57
2021/01/03 06:38:23;;;;;;;11.47;8.10;;;12.40;70.20;;;;;;5115834;28;20562;-58
2021/01/03 06:40:54;;;;;;;12.77;8.30;;;12.40;70.10;;;;;;5115886;28;20420;-58
2021/01/03 06:43:29;;;;;;;12.03;8.20;;;12.40;70.10;;;;;;5115830;28;20490;-59
2021/01/03 06:46:33;;;;;;;13.37;8.40;;;12.40;70.00;;;;;;5115922;28;20507;-59
2021/01/03 06:49:18;;;;;;;11.73;8.73;;;12.40;70.20;;;;;;5115130;28;20435;-59
2021/01/03 06:51:54;;;;;;;11.10;8.40;;;12.40;70.20;;;;;;5115817;28;20447;-58
2021/01/03 06:54:50;;;;;;;11.23;8.10;;;12.30;70.30;;;;;;5115944;28;20423;-59
2021/01/03 06:57:54;;;;;;;9.70;7.90;;;12.30;70.30;;;;;;5115855;27;20567;-57
2021/01/03 07:00:22;;;;;;;11.63;8.63;;;12.30;70.30;;;;;;5072889;28;20520;-58
2021/01/03 07:02:52;;;;;;;10.90;8.17;;;12.30;70.20;;;;;;5108175;27;20531;-59
2021/01/03 07:05:20;;;;;;;11.57;8.30;;;12.30;70.10;;;;;;5115671;28;20557;-59
2021/01/03 07:07:57;;;;;;;12.40;7.90;;;12.40;70.00;;;;;;5115405;28;20449;-58
2021/01/03 07:10:33;;;;;;;10.13;7.60;;;12.40;70.10;;;;;;5115286;28;20431;-59
2021/01/03 07:13:00;;;;;;;11.00;8.30;;;12.30;70.00;;;;;;5115072;28;20508;-59
2021/01/03 07:15:40;;;;;;;10.10;7.57;;;12.30;70.10;;;;;;5115397;27;20432;-59
2021/01/03 07:18:29;;;;;;;12.30;8.27;;;12.30;70.20;;;;;;5115140;28;20507;-58
2021/01/03 07:21:03;;;;;;;11.90;8.20;;;12.30;70.20;;;;;;5114886;28;20436;-56
2021/01/03 07:23:33;;;;;;;12.00;8.17;;;12.20;70.30;;;;;;5122843;27;20439;-59
2021/01/03 07:26:13;;;;;;;11.17;8.27;;;12.30;70.20;;;;;;5135624;27;20439;-59
2021/01/03 07:28:39;;;;;;;10.97;8.17;;;12.20;70.30;;;;;;5135304;27;20474;-59
2021/01/03 07:31:40;;;;;;;11.10;8.13;;;12.20;70.50;;;;;;5135838;27;20449;-59
2021/01/03 07:34:10;;;;;;;16.00;9.87;;;12.20;70.40;;;;;;5135366;27;20434;-58
2021/01/03 07:36:41;;;;;;;11.47;8.40;;;12.20;70.40;;;;;;5135591;27;20780;-59
2021/01/03 07:39:23;;;;;;;11.57;7.80;;;12.20;70.60;;;;;;5135080;27;20431;-57
2021/01/03 07:42:14;;;;;;;12.13;8.10;;;12.30;70.50;;;;;;5135353;27;20531;-58
2021/01/03 07:44:41;;;;;;;10.50;7.93;;;12.30;70.30;;;;;;5135556;27;20468;-58
2021/01/03 07:47:08;;;;;;;14.30;8.23;;;12.40;70.30;;;;;;5135354;27;20431;-58
2021/01/03 07:49:40;;;;;;;10.40;7.70;;;12.30;70.20;;;;;;5134327;27;20451;-58
2021/01/03 07:52:40;;;;;;;9.70;7.30;;;12.30;70.30;;;;;;5135233;27;20433;-58
2021/01/03 07:55:14;;;;;;;11.37;7.63;;;12.20;70.40;;;;;;5130667;27;20460;-59
2021/01/03 07:57:42;;;;;;;12.97;8.73;;;12.30;70.30;;;;;;5135241;27;20493;-59
2021/01/03 08:00:09;;;;;;;11.13;8.17;;;12.20;70.30;;;;;;5115823;28;20447;-59
2021/01/03 08:02:37;;;;;;;11.43;7.70;;;12.20;70.40;;;;;;5114622;28;20440;-58
2021/01/03 08:05:05;;;;;;;12.33;8.30;;;12.20;70.40;;;;;;5114776;28;20538;-58
2021/01/03 08:07:32;;;;;;;11.73;8.13;;;12.20;70.50;;;;;;5114841;28;20531;-58
2021/01/03 08:10:06;;;;;;;9.03;7.10;;;12.20;70.50;;;;;;5114029;28;20456;-59
2021/01/03 08:12:36;;;;;;;11.40;8.17;;;12.20;70.40;;;;;;5114330;28;20519;-56
2021/01/03 08:15:07;;;;;;;9.90;7.77;;;12.30;70.30;;;;;;5114663;28;20428;-57
2021/01/03 08:17:35;;;;;;;11.13;7.80;;;12.20;70.50;;;;;;5129630;28;20513;-58
2021/01/03 08:20:03;;;;;;;11.17;7.97;;;12.30;70.30;;;;;;5134325;28;20468;-59
2021/01/03 08:22:30;;;;;;;11.60;7.53;;;12.20;70.50;;;;;;5135456;28;20503;-59
2021/01/03 08:24:58;;;;;;;10.43;7.40;;;12.20;70.40;;;;;;5131729;28;20537;-59
2021/01/03 08:27:28;;;;;;;10.47;7.80;;;12.30;70.30;;;;;;5114479;28;20455;-59
2021/01/03 08:29:59;;;;;;;11.53;7.80;;;12.30;70.30;;;;;;5113805;28;20527;-59
2021/01/03 08:32:27;;;;;;;13.57;8.10;;;12.30;70.30;;;;;;5114276;28;20423;-59
2021/01/03 08:34:58;;;;;;;8.90;7.90;;;12.30;70.40;;;;;;5114608;28;20530;-59
2021/01/03 08:37:26;;;;;;;10.83;7.73;;;12.30;70.40;;;;;;5114440;28;20551;-58
2021/01/03 08:39:54;;;;;;;11.10;8.03;;;12.30;70.30;;;;;;5113610;28;20461;-59
2021/01/03 08:42:23;;;;;;;11.90;8.03;;;12.30;70.40;;;;;;5114793;28;20459;-59
2021/01/03 08:44:51;;;;;;;13.97;8.27;;;12.30;70.40;;;;;;5114340;28;20506;-59
2021/01/03 08:47:21;;;;;;;10.20;7.73;;;12.40;70.30;;;;;;5114309;28;20438;-59
2021/01/03 08:49:48;;;;;;;12.17;7.60;;;12.40;70.20;;;;;;5113629;28;20468;-59
2021/01/03 08:52:18;;;;;;;9.90;7.40;;;12.40;70.20;;;;;;5113954;28;20504;-59
2021/01/03 08:54:45;;;;;;;9.63;7.60;;;12.30;70.30;;;;;;5114303;28;20531;-59
2021/01/03 08:57:12;;;;;;;10.50;7.97;;;12.40;70.20;;;;;;5114174;28;20467;-59
2021/01/03 08:59:40;;;;;;;11.80;8.20;;;12.50;70.10;;;;;;5113637;28;20489;-58
2021/01/03 09:02:17;;;;;;;9.97;7.33;;;12.60;70.10;;;;;;5114028;28;20531;-59
2021/01/03 09:04:45;;;;;;;9.37;6.60;;;12.70;69.80;;;;;;5113873;28;20432;-59
2021/01/03 09:07:12;;;;;;;10.10;7.77;;;12.80;69.70;;;;;;5114095;28;20431;-59
2021/01/03 09:09:39;;;;;;;7.43;6.50;;;13.00;69.70;;;;;;5113926;28;20448;-59
2021/01/03 09:12:07;;;;;;;9.40;7.17;;;13.00;69.30;;;;;;5115943;28;20534;-59
2021/01/03 09:14:36;;;;;;;10.00;7.73;;;13.00;69.20;;;;;;5117809;28;20518;-59
2021/01/03 09:17:05;;;;;;;9.23;7.43;;;13.00;69.20;;;;;;5117513;28;20502;-59
2021/01/03 09:19:40;;;;;;;9.10;7.17;;;13.10;69.20;;;;;;5132491;27;20439;-57
2021/01/03 09:22:07;;;;;;;9.27;7.27;;;13.10;68.90;;;;;;5138329;27;20437;-59
2021/01/03 09:24:36;;;;;;;9.00;6.60;;;13.10;69.10;;;;;;5137990;27;20499;-58
2021/01/03 09:27:05;;;;;;;8.80;6.27;;;13.00;69.20;;;;;;5133683;27;20523;-59
2021/01/03 09:29:33;;;;;;;9.37;6.90;;;13.10;69.20;;;;;;5116892;28;20553;-59
2021/01/03 09:32:03;;;;;;;8.03;6.50;;;13.00;69.30;;;;;;5117204;28;20471;-58
2021/01/03 09:34:34;;;;;;;9.47;7.20;;;13.10;69.30;;;;;;5117234;28;20427;-59
2021/01/03 09:37:05;;;;;;;8.87;6.70;;;13.00;69.50;;;;;;5130990;27;20513;-56
2021/01/03 09:39:37;;;;;;;8.93;6.93;;;13.00;70.20;;;;;;5137473;27;20438;-59
2021/01/03 09:42:37;;;;;;;9.13;7.00;;;13.00;69.50;;;;;;5137723;27;20441;-57
2021/01/03 09:45:36;;;;;;;9.87;6.90;;;12.90;69.60;;;;;;5124347;27;20435;-56
2021/01/03 09:48:03;;;;;;;8.53;6.33;;;12.90;70.00;;;;;;5083304;28;20530;-57
2021/01/03 09:50:33;;;;;;;8.80;6.93;;;12.80;70.60;;;;;;5116443;28;20464;-58
2021/01/03 09:53:08;;;;;;;7.63;6.37;;;12.80;70.20;;;;;;5117018;28;20539;-59
2021/01/03 09:55:41;;;;;;;9.30;6.77;;;12.80;70.20;;;;;;5117026;28;20455;-58
2021/01/03 09:58:08;;;;;;;8.73;6.83;;;12.80;70.30;;;;;;5116703;28;20514;-57
2021/01/03 10:00:54;;;;;;;9.03;6.67;;;12.70;70.30;;;;;;5116092;28;20467;-58
2021/01/03 10:03:25;;;;;;;7.33;6.27;;;12.80;70.30;;;;;;5116702;27;20530;-58
2021/01/03 10:05:53;;;;;;;9.30;6.33;;;12.80;70.20;;;;;;5116435;28;20459;-57
2021/01/03 10:08:24;;;;;;;8.60;6.40;;;12.70;70.40;;;;;;5116349;28;20432;-58
2021/01/03 10:10:53;;;;;;;8.17;6.37;;;12.70;70.40;;;;;;5115997;28;20456;-58
2021/01/03 10:13:20;;;;;;;8.77;6.23;;;12.70;70.40;;;;;;5116366;28;20494;-59
2021/01/03 10:15:49;;;;;;;7.80;5.83;;;12.70;70.50;;;;;;5116367;28;20524;-58
2021/01/03 10:18:28;;;;;;;8.73;6.83;;;12.70;70.50;;;;;;5116462;28;20497;-59
2021/01/03 10:20:55;;;;;;;7.33;6.33;;;12.70;70.60;;;;;;5126833;27;20445;-59
2021/01/03 10:23:33;;;;;;;7.90;6.20;;;12.70;70.50;;;;;;5136159;27;20534;-58
2021/01/03 10:26:02;;;;;;;7.73;6.63;;;12.70;70.50;;;;;;5136777;27;20426;-59
2021/01/03 10:28:29;;;;;;;8.97;6.13;;;12.70;70.80;;;;;;5136854;27;20439;-59
2021/01/03 10:30:55;;;;;;;7.27;6.33;;;12.70;70.70;;;;;;5115692;28;20459;-59
2021/01/03 10:33:22;;;;;;;7.50;5.57;;;12.80;70.50;;;;;;5116162;28;20485;-59
2021/01/03 10:35:49;;;;;;;7.73;5.70;;;12.70;70.40;;;;;;5116092;28;20489;-58
2021/01/03 10:38:16;;;;;;;8.50;6.50;;;12.80;70.30;;;;;;5115963;27;20499;-57
2021/01/03 10:40:43;;;;;;;6.33;5.53;;;12.80;70.20;;;;;;5115945;28;20458;-59
2021/01/03 10:43:10;;;;;;;7.93;6.00;;;12.80;70.20;;;;;;5116061;28;20440;-59
2021/01/03 10:45:37;;;;;;;7.83;6.47;;;12.80;70.40;;;;;;5116194;28;20436;-59
2021/01/03 10:48:06;;;;;;;6.60;5.73;;;12.70;70.30;;;;;;5116136;28;20497;-59
2021/01/03 10:50:33;;;;;;;6.90;5.70;;;12.80;70.40;;;;;;5115185;28;20428;-58
2021/01/03 10:53:00;;;;;;;6.03;5.30;;;12.80;70.50;;;;;;5115491;28;20440;-59
2021/01/03 10:55:27;;;;;;;5.90;5.30;;;12.80;70.30;;;;;;5118756;27;20466;-59
2021/01/03 10:57:56;;;;;;;6.17;5.40;;;12.80;70.20;;;;;;5136403;27;20502;-59
2021/01/03 11:00:24;;;;;;;6.00;5.40;;;12.80;70.30;;;;;;5135503;27;20478;-59
2021/01/03 11:02:51;;;;;;;8.40;5.43;;;12.80;70.20;;;;;;5135859;27;20435;-58
2021/01/03 11:05:18;;;;;;;7.90;6.07;;;12.90;70.20;;;;;;5135746;27;20439;-59
2021/01/03 11:07:45;;;;;;;6.00;5.17;;;12.90;70.20;;;;;;5135739;27;20459;-58
2021/01/03 11:10:12;;;;;;;6.03;5.13;;;12.90;70.20;;;;;;5135539;27;20463;-59
2021/01/03 11:12:39;;;;;;;8.30;6.40;;;13.00;70.10;;;;;;5135653;27;20535;-59
2021/01/03 11:15:07;;;;;;;5.57;5.03;;;12.90;70.10;;;;;;5135330;27;20431;-59
2021/01/03 11:17:52;;;;;;;6.37;5.50;;;13.00;70.00;;;;;;5136302;27;20459;-59
2021/01/03 11:20:19;;;;;;;6.40;5.70;;;13.00;70.00;;;;;;5135021;27;20453;-59
2021/01/03 11:22:47;;;;;;;7.47;5.80;;;13.10;69.50;;;;;;5134970;27;20427;-59
2021/01/03 11:25:14;;;;;;;5.50;4.97;;;13.20;69.60;;;;;;5135579;27;20463;-58
2021/01/03 11:27:41;;;;;;;6.33;5.67;;;13.20;69.60;;;;;;5135612;27;20526;-58
2021/01/03 11:30:09;;;;;;;5.70;4.97;;;13.20;69.50;;;;;;5134713;27;20518;-58
2021/01/03 11:32:35;;;;;;;5.53;5.03;;;13.30;69.30;;;;;;5135009;27;20495;-57
2021/01/03 11:35:05;;;;;;;6.53;5.50;;;13.20;69.30;;;;;;5134607;27;20439;-59
2021/01/03 11:37:31;;;;;;;6.07;5.17;;;13.20;69.30;;;;;;5135520;27;20566;-59
2021/01/03 11:39:58;;;;;;;5.80;5.20;;;13.20;69.30;;;;;;5129080;27;20487;-59
2021/01/03 11:42:28;;;;;;;5.53;4.80;;;13.20;69.40;;;;;;5114843;28;20523;-59
2021/01/03 11:44:54;;;;;;;4.47;4.03;;;13.40;69.30;;;;;;5114793;28;20488;-58
2021/01/03 11:47:21;;;;;;;5.60;5.00;;;13.60;68.90;;;;;;5114747;28;20455;-58
2021/01/03 11:49:48;;;;;;;4.83;4.37;;;13.90;68.10;;;;;;5114427;28;20467;-58
2021/01/03 11:52:29;;;;;;;4.77;4.37;;;14.20;67.40;;;;;;5114995;28;20526;-58
2021/01/03 11:54:56;;;;;;;5.83;5.23;;;14.40;66.60;;;;;;5114570;28;20458;-59
2021/01/03 11:57:23;;;;;;;5.27;4.77;;;14.50;66.20;;;;;;5117293;27;20481;-59
2021/01/03 11:59:50;;;;;;;4.70;4.30;;;14.70;65.80;;;;;;5134372;27;20427;-59
2021/01/03 12:02:17;;;;;;;4.97;4.50;;;16.10;65.30;;;;;;5135141;27;20478;-58
2021/01/03 12:04:44;;;;;;;5.40;4.90;;;19.40;58.80;;;;;;5134792;27;20434;-57
2021/01/03 12:07:13;;;;;;;5.57;5.07;;;20.10;54.10;;;;;;5134994;27;20431;-58
2021/01/03 12:09:40;;;;;;;4.83;4.43;;;22.00;51.90;;;;;;5134371;27;20493;-58
2021/01/03 12:12:09;;;;;;;4.50;4.20;;;23.30;50.20;;;;;;5134530;28;20447;-57
2021/01/03 12:14:36;;;;;;;5.70;4.33;;;23.80;47.40;;;;;;5135048;28;20513;-58
2021/01/03 12:17:05;;;;;;;4.80;4.40;;;24.40;46.70;;;;;;5114798;27;20574;-58
2021/01/03 12:19:32;;;;;;;4.23;3.93;;;24.10;46.80;;;;;;5113903;28;20502;-58
2021/01/03 12:21:59;;;;;;;4.43;4.00;;;22.20;47.30;;;;;;5114254;28;20454;-60
2021/01/03 12:24:27;;;;;;;4.00;3.70;;;20.60;49.60;;;;;;5114238;28;20440;-60
2021/01/03 12:26:55;;;;;;;4.40;4.00;;;19.30;52.00;;;;;;5114310;28;20557;-59
2021/01/03 12:29:22;;;;;;;3.73;3.43;;;18.10;54.20;;;;;;5113959;28;20440;-58
2021/01/03 12:31:50;;;;;;;4.10;3.80;;;17.30;56.80;;;;;;5114359;28;20467;-59
2021/01/03 12:34:18;;;;;;;4.47;4.17;;;16.70;57.90;;;;;;5130011;28;20459;-59
2021/01/03 12:36:45;;;;;;;4.70;4.30;;;16.40;58.80;;;;;;5134686;28;20502;-58
2021/01/03 12:39:13;;;;;;;4.40;4.00;;;16.00;59.60;;;;;;5134229;28;20498;-59
2021/01/03 12:41:40;;;;;;;5.13;3.83;;;15.70;60.40;;;;;;5134695;28;20530;-57
2021/01/03 12:44:08;;;;;;;3.97;3.67;;;15.40;61.40;;;;;;5134450;28;20533;-58
2021/01/03 12:46:37;;;;;;;4.20;3.80;;;15.20;62.00;;;;;;5136658;27;20529;-59
2021/01/03 12:49:04;;;;;;;4.80;4.10;;;15.10;62.40;;;;;;5138119;27;20430;-59
2021/01/03 12:51:31;;;;;;;4.43;4.03;;;15.00;62.80;;;;;;5126305;27;20439;-59
2021/01/03 12:53:58;;;;;;;4.03;3.73;;;14.90;63.20;;;;;;5118150;28;20534;-59
2021/01/03 12:56:26;;;;;;;4.20;3.80;;;14.90;63.40;;;;;;5117750;28;20539;-59